Time;durP1;ratioP1;P1;durP2;ratioP2;P2;SDS_P1;SDS_P2;PMS_P1;PMS_P2;Temp;Humidity;BMP_temperature;BMP_pressure;BME280_temperature;BME280_humidity;BME280_pressure;Samples;Min_cycle;Max_cycle;Signal;HPM_P1;HPM_P2
2021/03/26 00:01:35;;;;;;;6.47;4.63;;;21.90;49.00;;;;;;4997305;28;20412;-69
2021/03/26 00:04:04;;;;;;;6.97;4.40;;;22.00;49.10;;;;;;5011801;28;20507;-69
2021/03/26 00:06:31;;;;;;;7.63;4.43;;;22.00;49.10;;;;;;4997037;28;20404;-69
2021/03/26 00:08:59;;;;;;;6.63;4.40;;;21.90;49.00;;;;;;4997021;28;20416;-70
2021/03/26 00:11:27;;;;;;;7.67;4.10;;;21.90;49.00;;;;;;4996925;28;20486;-68
2021/03/26 00:13:53;;;;;;;9.90;4.97;;;22.00;49.10;;;;;;4995587;28;20939;-69
2021/03/26 00:16:20;;;;;;;7.43;4.80;;;22.00;49.10;;;;;;4996943;28;20407;-69
2021/03/26 00:18:47;;;;;;;6.30;4.47;;;22.00;49.10;;;;;;4996789;28;20169;-69
2021/03/26 00:21:13;;;;;;;6.13;4.40;;;22.00;49.10;;;;;;5011869;28;20462;-68
2021/03/26 00:23:39;;;;;;;6.27;4.10;;;21.90;49.00;;;;;;4996689;28;20510;-69
2021/03/26 00:26:05;;;;;;;6.67;4.50;;;22.00;49.10;;;;;;4996972;28;20408;-69
2021/03/26 00:28:31;;;;;;;5.67;4.23;;;22.00;49.10;;;;;;4996635;28;20408;-68
2021/03/26 00:30:57;;;;;;;8.40;4.40;;;22.00;49.10;;;;;;4996590;28;20169;-68
2021/03/26 00:33:23;;;;;;;8.07;4.10;;;22.00;49.10;;;;;;4996659;28;21055;-69
2021/03/26 00:35:49;;;;;;;4.90;3.77;;;22.00;49.10;;;;;;4996463;28;20789;-69
2021/03/26 00:38:15;;;;;;;8.13;4.70;;;22.00;49.10;;;;;;4996616;28;20550;-69
2021/03/26 00:40:41;;;;;;;5.50;3.97;;;22.00;49.10;;;;;;4996418;28;20814;-69
2021/03/26 00:43:07;;;;;;;6.47;4.33;;;21.90;49.00;;;;;;4996399;28;20185;-69
2021/03/26 00:45:35;;;;;;;7.27;4.50;;;22.00;49.10;;;;;;4996363;28;20747;-69
2021/03/26 00:48:01;;;;;;;6.07;4.50;;;22.00;49.10;;;;;;4996205;28;20177;-69
2021/03/26 00:50:36;;;;;;;6.47;4.37;;;21.90;49.00;;;;;;4996189;28;20519;-69
2021/03/26 00:53:05;;;;;;;6.00;4.10;;;21.90;49.00;;;;;;4994891;28;20458;-69
2021/03/26 00:55:31;;;;;;;6.83;4.43;;;22.00;49.10;;;;;;4994902;28;20416;-69
2021/03/26 00:57:57;;;;;;;8.10;4.80;;;21.90;49.00;;;;;;4995984;28;20970;-69
2021/03/26 01:00:24;;;;;;;6.20;4.00;;;21.90;49.00;;;;;;4996027;28;20184;-69
2021/03/26 01:02:50;;;;;;;8.20;3.90;;;21.90;49.00;;;;;;4994894;28;20192;-69
2021/03/26 01:05:20;;;;;;;6.40;4.10;;;21.90;49.00;;;;;;4995922;28;20904;-69
2021/03/26 01:07:47;;;;;;;7.20;3.50;;;21.90;49.00;;;;;;4995781;28;20188;-69
2021/03/26 01:10:16;;;;;;;5.90;4.40;;;21.90;49.10;;;;;;4994661;28;20784;-69
2021/03/26 01:12:42;;;;;;;6.87;4.20;;;21.90;49.00;;;;;;4996056;28;20466;-69
2021/03/26 01:15:11;;;;;;;5.60;4.60;;;21.90;49.10;;;;;;4996035;28;20927;-69
2021/03/26 01:17:37;;;;;;;6.20;5.07;;;21.90;49.00;;;;;;4995666;28;20193;-69
2021/03/26 01:20:11;;;;;;;7.40;4.47;;;21.90;49.10;;;;;;4995690;28;20401;-69
2021/03/26 01:22:36;;;;;;;6.80;4.03;;;21.90;49.10;;;;;;4996024;28;20801;-69
2021/03/26 01:25:10;;;;;;;5.70;3.97;;;21.90;49.10;;;;;;4994349;28;20401;-68
2021/03/26 01:27:36;;;;;;;6.07;4.47;;;21.90;49.10;;;;;;4995807;28;20169;-69
2021/03/26 01:30:09;;;;;;;7.50;4.60;;;21.90;49.10;;;;;;4995482;28;20489;-70
2021/03/26 01:32:34;;;;;;;5.90;5.30;;;21.90;49.10;;;;;;4995454;28;20231;-68
2021/03/26 01:35:00;;;;;;;6.80;3.77;;;21.80;49.10;;;;;;4995414;28;20911;-69
2021/03/26 01:37:26;;;;;;;5.60;4.30;;;21.80;49.00;;;;;;4994052;28;20251;-69
2021/03/26 01:39:51;;;;;;;4.70;3.80;;;21.80;49.00;;;;;;4995279;28;20413;-68
2021/03/26 01:42:30;;;;;;;5.73;4.10;;;21.80;49.10;;;;;;4995151;28;20268;-69
2021/03/26 01:44:56;;;;;;;5.23;4.03;;;21.80;49.00;;;;;;4995240;28;20160;-69
2021/03/26 01:47:22;;;;;;;6.53;3.73;;;21.80;49.10;;;;;;4995182;28;20971;-69
2021/03/26 01:49:47;;;;;;;5.63;3.90;;;21.90;49.10;;;;;;4995025;28;20231;-69
2021/03/26 01:52:13;;;;;;;4.90;3.27;;;21.80;49.10;;;;;;4995276;28;20205;-69
2021/03/26 01:54:39;;;;;;;6.07;3.83;;;21.90;49.20;;;;;;4995081;28;20177;-69
2021/03/26 01:57:05;;;;;;;5.90;3.83;;;21.90;49.20;;;;;;4994943;28;20196;-69
2021/03/26 01:59:31;;;;;;;6.13;4.20;;;21.80;49.10;;;;;;4994865;28;20244;-69
2021/03/26 02:02:01;;;;;;;4.83;3.77;;;21.80;49.10;;;;;;4994791;28;20416;-69
2021/03/26 02:04:38;;;;;;;5.20;3.80;;;21.80;49.10;;;;;;4994859;28;20174;-69
2021/03/26 02:07:04;;;;;;;5.37;3.67;;;21.80;49.10;;;;;;4995319;28;20400;-69
2021/03/26 02:09:34;;;;;;;6.80;3.93;;;21.80;49.10;;;;;;4994741;28;20408;-69
2021/03/26 02:12:05;;;;;;;6.63;4.17;;;21.80;49.10;;;;;;4994602;28;20408;-70
2021/03/26 02:14:50;;;;;;;6.77;3.80;;;21.80;49.20;;;;;;4994469;28;20400;-69
2021/03/26 02:17:23;;;;;;;5.50;3.50;;;21.80;49.10;;;;;;4994752;28;20451;-69
2021/03/26 02:19:57;;;;;;;5.77;4.23;;;21.80;49.10;;;;;;4994641;28;20797;-69
2021/03/26 02:22:29;;;;;;;7.50;3.67;;;21.80;49.20;;;;;;4994500;28;20460;-69
2021/03/26 02:24:55;;;;;;;5.37;4.23;;;21.80;49.20;;;;;;4994771;28;20389;-69
2021/03/26 02:27:32;;;;;;;5.33;3.40;;;21.80;49.20;;;;;;4994409;28;20752;-69
2021/03/26 02:29:59;;;;;;;5.47;4.37;;;21.80;49.20;;;;;;5009825;28;20935;-69
2021/03/26 02:32:36;;;;;;;4.67;3.40;;;21.80;49.20;;;;;;4994213;28;20439;-69
2021/03/26 02:35:30;;;;;;;4.40;3.53;;;21.80;49.20;;;;;;4994278;28;20428;-69
2021/03/26 02:38:27;;;;;;;6.17;4.07;;;21.80;49.20;;;;;;4994197;28;20456;-68
2021/03/26 02:41:12;;;;;;;5.50;3.50;;;21.80;49.20;;;;;;4994084;28;20427;-67
2021/03/26 02:44:12;;;;;;;6.50;4.13;;;21.80;49.20;;;;;;5009548;28;20436;-69
2021/03/26 02:46:55;;;;;;;6.10;3.77;;;21.80;49.20;;;;;;4994095;28;20404;-69
2021/03/26 02:49:46;;;;;;;5.50;3.43;;;21.70;49.20;;;;;;4994305;28;20427;-69
2021/03/26 02:52:26;;;;;;;5.10;3.77;;;21.80;49.30;;;;;;4993955;28;20461;-69
2021/03/26 02:55:07;;;;;;;5.67;4.20;;;21.70;49.20;;;;;;4993980;28;20391;-69
2021/03/26 02:57:42;;;;;;;4.73;3.80;;;21.70;49.20;;;;;;4994173;28;20443;-68
2021/03/26 03:00:25;;;;;;;4.90;3.23;;;21.70;49.20;;;;;;4993948;28;20384;-68
2021/03/26 03:02:53;;;;;;;4.70;3.17;;;21.70;49.20;;;;;;4993735;28;20432;-69
2021/03/26 03:05:30;;;;;;;4.67;3.07;;;21.70;49.20;;;;;;4993853;28;20404;-68
2021/03/26 03:08:14;;;;;;;6.17;3.83;;;21.70;49.20;;;;;;4993771;28;20416;-68
2021/03/26 03:10:50;;;;;;;4.27;3.07;;;21.70;49.20;;;;;;4993780;28;20395;-68
2021/03/26 03:13:30;;;;;;;5.50;3.10;;;21.70;49.20;;;;;;4993685;28;20431;-68
2021/03/26 03:16:02;;;;;;;3.93;3.20;;;21.70;49.30;;;;;;4992663;28;20507;-68
2021/03/26 03:18:30;;;;;;;5.47;3.30;;;21.70;49.30;;;;;;4992400;28;20439;-69
2021/03/26 03:21:21;;;;;;;4.80;3.63;;;21.70;49.20;;;;;;4993776;28;20419;-68
2021/03/26 03:23:54;;;;;;;4.27;3.13;;;21.70;49.20;;;;;;4993745;28;20431;-69
2021/03/26 03:26:44;;;;;;;4.43;3.40;;;21.70;49.30;;;;;;4996036;28;20397;-69
2021/03/26 03:29:20;;;;;;;5.40;3.80;;;21.70;49.30;;;;;;5000144;28;20474;-69
2021/03/26 03:31:55;;;;;;;3.90;3.50;;;21.70;49.30;;;;;;5000249;28;20769;-68
2021/03/26 03:34:38;;;;;;;4.80;3.03;;;21.70;49.30;;;;;;5000112;28;20403;-69
2021/03/26 03:37:32;;;;;;;4.93;3.87;;;21.70;49.30;;;;;;5000283;28;20514;-69
2021/03/26 03:40:06;;;;;;;4.67;3.57;;;21.70;49.30;;;;;;5000153;28;20428;-69
2021/03/26 03:42:52;;;;;;;5.80;3.93;;;21.70;49.30;;;;;;4998702;28;20462;-69
2021/03/26 03:45:29;;;;;;;5.10;3.37;;;21.70;49.30;;;;;;5000246;28;20400;-68
2021/03/26 03:48:04;;;;;;;3.90;3.20;;;21.70;49.30;;;;;;4998723;28;20992;-69
2021/03/26 03:50:55;;;;;;;5.60;3.50;;;21.70;49.40;;;;;;4999856;28;20427;-69
2021/03/26 03:53:28;;;;;;;3.97;2.70;;;21.70;49.30;;;;;;4999458;28;20509;-69
2021/03/26 03:56:01;;;;;;;5.73;3.23;;;21.70;49.40;;;;;;5000002;28;20848;-69
2021/03/26 03:58:33;;;;;;;3.87;3.20;;;21.60;49.30;;;;;;5000414;28;20807;-69
2021/03/26 04:01:02;;;;;;;5.53;3.67;;;21.70;49.40;;;;;;5000132;28;20744;-69
2021/03/26 04:03:50;;;;;;;5.90;3.20;;;21.60;49.30;;;;;;4999739;28;20428;-69
2021/03/26 04:06:28;;;;;;;4.70;3.20;;;21.70;49.40;;;;;;4998490;28;20517;-69
2021/03/26 04:09:01;;;;;;;5.23;3.13;;;21.60;49.30;;;;;;4999762;28;20400;-69
2021/03/26 04:11:39;;;;;;;4.60;3.77;;;21.60;49.30;;;;;;4999805;28;20396;-69
2021/03/26 04:14:27;;;;;;;5.20;3.47;;;21.60;49.30;;;;;;4999658;28;20424;-69
2021/03/26 04:17:02;;;;;;;4.77;3.10;;;21.70;49.40;;;;;;4998401;28;20444;-69
2021/03/26 04:19:40;;;;;;;4.77;2.80;;;21.60;49.30;;;;;;4999590;28;20411;-69
2021/03/26 04:22:09;;;;;;;4.00;2.90;;;21.60;49.30;;;;;;4999601;28;20427;-69
2021/03/26 04:24:46;;;;;;;4.47;3.07;;;21.60;49.30;;;;;;4999622;28;20818;-69
2021/03/26 04:27:28;;;;;;;5.13;3.60;;;21.60;49.30;;;;;;4999649;28;20427;-68
2021/03/26 04:30:11;;;;;;;4.30;2.90;;;21.70;49.40;;;;;;4999847;28;20915;-69
2021/03/26 04:32:37;;;;;;;4.43;3.30;;;21.60;49.30;;;;;;4999633;28;20455;-69
2021/03/26 04:35:04;;;;;;;4.30;3.00;;;21.60;49.40;;;;;;4999574;28;20941;-69
2021/03/26 04:37:32;;;;;;;4.50;3.20;;;21.60;49.40;;;;;;4997924;28;20447;-69
2021/03/26 04:40:26;;;;;;;4.97;3.33;;;21.60;49.40;;;;;;4996437;28;20405;-68
2021/03/26 04:42:59;;;;;;;3.97;3.17;;;21.60;49.40;;;;;;4996341;28;20420;-69
2021/03/26 04:45:43;;;;;;;5.87;3.20;;;21.60;49.40;;;;;;4996376;28;20397;-69
2021/03/26 04:48:37;;;;;;;3.83;3.17;;;21.60;49.30;;;;;;4996478;28;20410;-69
2021/03/26 04:51:12;;;;;;;5.20;3.10;;;21.60;49.30;;;;;;4996518;28;20401;-68
2021/03/26 04:54:14;;;;;;;5.47;4.03;;;21.60;49.40;;;;;;4996161;28;20423;-69
2021/03/26 04:57:05;;;;;;;3.43;2.40;;;21.60;49.40;;;;;;4996375;28;20446;-69
2021/03/26 04:59:36;;;;;;;3.10;2.37;;;21.60;49.50;;;;;;4995172;28;20777;-69
2021/03/26 05:02:06;;;;;;;4.33;3.30;;;21.60;49.50;;;;;;4996202;28;20439;-69
2021/03/26 05:04:36;;;;;;;3.93;2.80;;;21.60;49.50;;;;;;4994703;28;20420;-69
2021/03/26 05:07:06;;;;;;;5.97;3.30;;;21.60;49.50;;;;;;4996394;28;20400;-68
2021/03/26 05:09:37;;;;;;;4.80;2.87;;;21.50;49.50;;;;;;4995960;28;20412;-69
2021/03/26 05:12:11;;;;;;;5.30;3.70;;;21.60;49.60;;;;;;4995988;28;20451;-69
2021/03/26 05:14:45;;;;;;;3.07;2.67;;;21.50;49.50;;;;;;4996099;28;20429;-68
2021/03/26 05:17:25;;;;;;;3.27;2.70;;;21.50;49.40;;;;;;4995840;28;20436;-68
2021/03/26 05:20:19;;;;;;;5.40;3.73;;;21.50;49.40;;;;;;4995682;28;20392;-69
2021/03/26 05:22:53;;;;;;;4.30;2.87;;;21.50;49.40;;;;;;4995921;28;20507;-68
2021/03/26 05:25:27;;;;;;;3.77;2.87;;;21.50;49.40;;;;;;4995669;28;20742;-68
2021/03/26 05:27:54;;;;;;;4.90;3.30;;;21.50;49.40;;;;;;4995482;28;20407;-67
2021/03/26 05:30:27;;;;;;;3.53;2.80;;;21.50;49.40;;;;;;4995490;28;20424;-69
2021/03/26 05:33:18;;;;;;;7.37;3.83;;;21.60;49.50;;;;;;4995601;28;21041;-69
2021/03/26 05:36:05;;;;;;;5.30;3.33;;;21.60;49.50;;;;;;4994252;28;20444;-68
2021/03/26 05:38:42;;;;;;;3.80;2.80;;;21.50;49.40;;;;;;4995379;28;20436;-69
2021/03/26 05:41:20;;;;;;;3.73;3.20;;;21.60;49.40;;;;;;4995757;28;20460;-69
2021/03/26 05:44:09;;;;;;;3.90;2.43;;;21.60;49.50;;;;;;4995485;28;20434;-68
2021/03/26 05:46:56;;;;;;;6.30;3.70;;;21.60;49.50;;;;;;4995232;28;20447;-69
2021/03/26 05:50:07;;;;;;;3.83;3.30;;;21.60;49.40;;;;;;4994772;28;20523;-67
2021/03/26 05:52:55;;;;;;;5.07;3.47;;;21.60;49.40;;;;;;4995072;28;20518;-68
2021/03/26 05:55:38;;;;;;;3.60;3.00;;;21.60;49.30;;;;;;4995360;28;20754;-69
2021/03/26 05:58:13;;;;;;;4.00;3.17;;;21.60;49.30;;;;;;4994889;28;20452;-69
2021/03/26 06:01:03;;;;;;;4.20;3.03;;;21.60;49.30;;;;;;4995253;28;20415;-69
2021/03/26 06:03:57;;;;;;;3.03;2.73;;;21.60;49.20;;;;;;4994764;28;20420;-68
2021/03/26 06:06:59;;;;;;;5.10;3.87;;;21.60;49.20;;;;;;4994498;28;20757;-69
2021/03/26 06:09:56;;;;;;;3.70;3.10;;;21.60;49.20;;;;;;4994798;28;20381;-68
2021/03/26 06:13:03;;;;;;;4.30;2.97;;;21.60;49.20;;;;;;4994744;28;20800;-69
2021/03/26 06:15:40;;;;;;;4.63;3.53;;;21.60;49.20;;;;;;4995478;28;20403;-68
2021/03/26 06:18:16;;;;;;;4.70;3.07;;;21.70;49.30;;;;;;4994603;28;20498;-69
2021/03/26 06:21:24;;;;;;;3.03;2.57;;;21.60;49.20;;;;;;4994625;28;20393;-68
2021/03/26 06:24:30;;;;;;;2.73;2.40;;;21.70;49.30;;;;;;5002539;28;20432;-69
2021/03/26 06:27:11;;;;;;;4.93;3.20;;;21.70;49.20;;;;;;4993130;28;20987;-68
2021/03/26 06:29:43;;;;;;;5.57;3.57;;;21.70;49.30;;;;;;4994896;28;20400;-68
2021/03/26 06:32:46;;;;;;;3.40;2.60;;;21.70;49.30;;;;;;4994476;28;20954;-69
2021/03/26 06:35:26;;;;;;;4.03;2.70;;;21.70;49.20;;;;;;4994587;28;20419;-68
2021/03/26 06:38:18;;;;;;;4.60;3.17;;;21.70;49.20;;;;;;4992985;28;20443;-69
2021/03/26 06:41:09;;;;;;;4.43;3.17;;;21.70;49.20;;;;;;4994661;28;20451;-69
2021/03/26 06:44:06;;;;;;;2.50;2.20;;;21.70;49.20;;;;;;4994198;28;20498;-68
2021/03/26 06:46:37;;;;;;;2.73;2.47;;;21.70;49.20;;;;;;4994086;28;20392;-67
2021/03/26 06:49:15;;;;;;;3.40;2.60;;;21.70;49.20;;;;;;4994084;28;20438;-68
2021/03/26 06:52:18;;;;;;;2.93;2.43;;;21.70;49.20;;;;;;4994013;28;20792;-69
2021/03/26 06:55:21;;;;;;;3.83;2.53;;;21.70;49.20;;;;;;4993953;28;20415;-68
2021/03/26 06:58:05;;;;;;;4.77;2.80;;;21.80;49.20;;;;;;4994040;28;20451;-69
2021/03/26 07:00:48;;;;;;;3.07;2.33;;;21.80;49.40;;;;;;4993602;28;20416;-68
2021/03/26 07:03:42;;;;;;;3.10;2.80;;;21.80;49.30;;;;;;4993939;28;20432;-68
2021/03/26 07:06:49;;;;;;;3.60;3.00;;;21.90;49.30;;;;;;4994150;28;20868;-69
2021/03/26 07:09:56;;;;;;;3.20;2.80;;;21.90;49.30;;;;;;4993794;28;20491;-68
2021/03/26 07:12:31;;;;;;;4.40;2.83;;;21.90;49.20;;;;;;4995705;28;20436;-68
2021/03/26 07:15:17;;;;;;;2.93;2.33;;;21.90;49.20;;;;;;4993695;28;20852;-68
2021/03/26 07:17:55;;;;;;;3.63;3.00;;;21.90;49.20;;;;;;4993927;28;20975;-69
2021/03/26 07:20:48;;;;;;;4.13;2.97;;;21.90;49.20;;;;;;4993730;28;20417;-69
2021/03/26 07:23:48;;;;;;;3.97;2.70;;;22.00;49.30;;;;;;4993852;28;20428;-67
2021/03/26 07:26:32;;;;;;;3.93;3.03;;;22.00;49.20;;;;;;4993870;28;20397;-68
2021/03/26 07:29:29;;;;;;;3.80;2.40;;;22.00;49.20;;;;;;4993641;28;20491;-68
2021/03/26 07:32:32;;;;;;;3.20;2.50;;;22.10;49.30;;;;;;4993512;28;20404;-69
2021/03/26 07:35:29;;;;;;;3.07;2.20;;;22.10;49.30;;;;;;4992356;28;20483;-69
2021/03/26 07:38:28;;;;;;;3.60;2.90;;;22.10;49.30;;;;;;4993390;28;21027;-68
2021/03/26 07:41:02;;;;;;;3.03;2.30;;;22.10;49.30;;;;;;4993504;28;20400;-68
2021/03/26 07:43:53;;;;;;;3.97;2.70;;;22.10;49.30;;;;;;4994105;28;20839;-68
2021/03/26 07:46:40;;;;;;;3.40;2.60;;;22.10;49.30;;;;;;4993733;28;20487;-67
2021/03/26 07:49:27;;;;;;;3.23;2.50;;;22.10;49.30;;;;;;4992022;28;20973;-69
2021/03/26 07:52:16;;;;;;;3.00;2.33;;;22.10;49.30;;;;;;4993261;28;20400;-68
2021/03/26 07:55:06;;;;;;;3.30;2.63;;;22.20;49.30;;;;;;4993385;28;20875;-68
2021/03/26 07:57:50;;;;;;;3.53;2.73;;;22.20;49.30;;;;;;4993290;28;20436;-68
2021/03/26 08:00:15;;;;;;;2.90;2.60;;;22.20;49.30;;;;;;4993554;28;20404;-68
2021/03/26 08:03:18;;;;;;;3.57;2.73;;;22.20;49.30;;;;;;4993262;28;20947;-68
2021/03/26 08:06:14;;;;;;;2.80;2.33;;;22.20;49.20;;;;;;4993169;28;20189;-68
2021/03/26 08:08:45;;;;;;;3.33;2.40;;;22.20;49.20;;;;;;4993557;28;20974;-69
2021/03/26 08:11:27;;;;;;;2.10;1.70;;;22.20;49.30;;;;;;4993437;28;20404;-69
2021/03/26 08:14:10;;;;;;;3.40;2.50;;;22.30;49.40;;;;;;4996810;28;20459;-69
2021/03/26 08:17:08;;;;;;;3.40;2.33;;;22.20;49.20;;;;;;4996978;28;20400;-68
2021/03/26 08:19:44;;;;;;;2.63;2.17;;;22.30;49.40;;;;;;4997129;28;20484;-68
2021/03/26 08:22:20;;;;;;;3.20;2.00;;;22.30;49.30;;;;;;4996785;28;20424;-69
2021/03/26 08:25:16;;;;;;;2.43;2.20;;;22.30;49.30;;;;;;4997027;28;20872;-68
2021/03/26 08:27:46;;;;;;;3.60;2.80;;;22.30;49.30;;;;;;4996972;28;20875;-69
2021/03/26 08:30:33;;;;;;;4.10;2.30;;;22.30;49.30;;;;;;4996948;28;20487;-68
2021/03/26 08:33:31;;;;;;;4.83;2.73;;;22.30;49.30;;;;;;4996474;28;20805;-67
2021/03/26 08:36:16;;;;;;;3.30;1.90;;;22.30;49.30;;;;;;4996813;28;20403;-68
2021/03/26 08:39:09;;;;;;;3.13;2.47;;;22.30;49.30;;;;;;4996383;28;20455;-68
2021/03/26 08:41:39;;;;;;;3.27;2.97;;;22.30;49.30;;;;;;4996432;28;20404;-68
2021/03/26 08:44:05;;;;;;;3.30;2.63;;;22.30;49.30;;;;;;4996323;28;20502;-68
2021/03/26 08:46:36;;;;;;;3.10;2.33;;;22.30;49.30;;;;;;4996891;28;20916;-68
2021/03/26 08:49:23;;;;;;;3.03;2.20;;;22.30;49.30;;;;;;4995331;28;20444;-67
2021/03/26 08:52:23;;;;;;;3.57;2.43;;;22.40;49.40;;;;;;4996185;28;20412;-69
2021/03/26 08:55:01;;;;;;;3.20;2.20;;;22.40;49.40;;;;;;4996494;28;20393;-68
2021/03/26 08:57:54;;;;;;;3.13;1.90;;;22.40;49.40;;;;;;4996070;28;20455;-68
2021/03/26 09:00:34;;;;;;;3.00;2.07;;;22.40;49.50;;;;;;4996335;28;20495;-69
2021/03/26 09:03:33;;;;;;;3.10;2.80;;;22.40;49.40;;;;;;4995965;28;20435;-69
2021/03/26 09:06:28;;;;;;;4.37;2.43;;;22.40;49.30;;;;;;4996045;28;20761;-69
2021/03/26 09:09:31;;;;;;;3.70;2.43;;;22.30;49.30;;;;;;4996496;28;20774;-68
2021/03/26 09:12:31;;;;;;;2.50;2.10;;;22.30;49.30;;;;;;4994551;28;20416;-68
2021/03/26 09:15:36;;;;;;;3.30;2.60;;;22.30;49.40;;;;;;4995855;28;20899;-69
2021/03/26 09:18:15;;;;;;;3.73;2.50;;;22.30;49.40;;;;;;4995739;28;20443;-69
2021/03/26 09:20:47;;;;;;;3.20;2.53;;;22.30;49.40;;;;;;4995942;28;20393;-68
2021/03/26 09:23:34;;;;;;;2.70;2.30;;;22.30;49.40;;;;;;4994806;28;20436;-69
2021/03/26 09:26:37;;;;;;;4.27;2.57;;;22.40;49.40;;;;;;4995680;28;20483;-68
2021/03/26 09:29:12;;;;;;;2.37;1.80;;;22.40;49.40;;;;;;4995951;28;20388;-68
2021/03/26 09:31:46;;;;;;;2.10;1.80;;;22.30;49.30;;;;;;4995748;28;20435;-69
2021/03/26 09:34:39;;;;;;;2.53;2.33;;;22.30;49.30;;;;;;4995791;28;20395;-68
2021/03/26 09:37:21;;;;;;;3.40;2.37;;;22.40;49.40;;;;;;4995518;28;20509;-68
2021/03/26 09:39:52;;;;;;;3.60;2.00;;;22.40;49.40;;;;;;4995559;28;20385;-69
2021/03/26 09:42:18;;;;;;;3.40;2.13;;;22.30;49.30;;;;;;4995290;28;20800;-69
2021/03/26 09:44:50;;;;;;;3.10;2.10;;;22.30;49.30;;;;;;4995432;28;20479;-67
2021/03/26 09:47:28;;;;;;;3.20;2.23;;;22.40;49.40;;;;;;4995366;28;20181;-69
2021/03/26 09:50:20;;;;;;;2.40;2.00;;;22.40;49.40;;;;;;4995863;28;20443;-68
2021/03/26 09:52:46;;;;;;;3.53;1.90;;;22.40;49.40;;;;;;4994080;28;20441;-68
2021/03/26 09:55:32;;;;;;;3.20;2.43;;;22.40;49.40;;;;;;4995140;28;20602;-69
2021/03/26 09:58:17;;;;;;;2.80;2.00;;;22.40;49.40;;;;;;4995018;28;20440;-68
2021/03/26 10:00:55;;;;;;;4.60;2.53;;;22.40;49.40;;;;;;4993745;28;20420;-68
2021/03/26 10:03:53;;;;;;;3.00;2.30;;;22.40;49.40;;;;;;4995095;28;20442;-69
2021/03/26 10:06:31;;;;;;;2.90;2.07;;;22.40;49.40;;;;;;5004394;28;20431;-69
2021/03/26 10:09:29;;;;;;;2.90;2.47;;;22.30;49.30;;;;;;4994827;28;20845;-69
2021/03/26 10:12:04;;;;;;;5.30;2.13;;;22.40;49.40;;;;;;4993475;28;20440;-68
2021/03/26 10:14:36;;;;;;;2.00;1.70;;;22.30;49.40;;;;;;4993563;28;20427;-69
2021/03/26 10:17:11;;;;;;;3.40;2.40;;;22.40;49.40;;;;;;4993299;28;20458;-67
2021/03/26 10:19:39;;;;;;;2.50;1.87;;;22.40;49.40;;;;;;4993441;28;20502;-69
2021/03/26 10:22:18;;;;;;;3.30;2.17;;;22.40;49.40;;;;;;4994521;28;20806;-68
2021/03/26 10:24:49;;;;;;;2.50;1.97;;;22.40;49.40;;;;;;4995142;28;20792;-68
2021/03/26 10:27:30;;;;;;;1.93;1.57;;;22.40;49.40;;;;;;4994718;28;20451;-68
2021/03/26 10:30:07;;;;;;;2.90;2.10;;;22.40;49.40;;;;;;4993281;28;20462;-67
2021/03/26 10:32:34;;;;;;;2.17;1.73;;;22.40;49.40;;;;;;4994463;28;20498;-68
2021/03/26 10:35:16;;;;;;;2.57;2.37;;;22.40;50.00;;;;;;4994408;28;20424;-69
2021/03/26 10:37:52;;;;;;;3.93;2.10;;;22.40;49.40;;;;;;4994562;28;20802;-69
2021/03/26 10:40:23;;;;;;;2.87;1.97;;;22.40;49.40;;;;;;4994120;28;20399;-69
2021/03/26 10:42:55;;;;;;;3.03;1.90;;;22.40;49.40;;;;;;4994178;28;20474;-68
2021/03/26 10:45:28;;;;;;;6.13;1.87;;;22.40;49.50;;;;;;4994440;28;20455;-68
2021/03/26 10:48:17;;;;;;;2.77;1.70;;;22.40;49.40;;;;;;4994281;28;20412;-68
2021/03/26 10:50:43;;;;;;;2.87;1.90;;;22.40;49.40;;;;;;4994115;28;20432;-68
2021/03/26 10:53:22;;;;;;;2.80;1.93;;;22.40;49.40;;;;;;4994108;28;20813;-69
2021/03/26 10:55:56;;;;;;;2.70;2.07;;;22.50;49.50;;;;;;4994316;28;20196;-69
2021/03/26 10:58:42;;;;;;;2.70;1.97;;;22.50;49.40;;;;;;4992962;28;20452;-69
2021/03/26 11:01:21;;;;;;;2.73;1.80;;;22.50;49.40;;;;;;4994516;28;20872;-67
2021/03/26 11:04:15;;;;;;;2.70;1.70;;;22.50;49.40;;;;;;4993956;28;20436;-69
2021/03/26 11:06:52;;;;;;;2.20;1.60;;;22.50;49.40;;;;;;4994426;28;20389;-69
2021/03/26 11:09:27;;;;;;;2.07;1.70;;;22.50;49.40;;;;;;4994136;28;20447;-69
2021/03/26 11:12:15;;;;;;;2.03;1.83;;;22.50;49.40;;;;;;4994316;28;20420;-67
2021/03/26 11:15:02;;;;;;;2.20;1.77;;;22.50;49.30;;;;;;4993892;28;20933;-69
2021/03/26 11:17:37;;;;;;;2.83;2.10;;;22.50;49.60;;;;;;4993963;28;20444;-69
2021/03/26 11:20:25;;;;;;;2.50;1.87;;;22.50;49.40;;;;;;4994307;28;20392;-69
2021/03/26 11:23:13;;;;;;;2.90;2.17;;;22.60;49.40;;;;;;4993914;28;20424;-68
2021/03/26 11:25:48;;;;;;;3.17;1.90;;;22.60;49.40;;;;;;4994294;28;20389;-68
2021/03/26 11:28:23;;;;;;;2.50;2.00;;;22.60;49.40;;;;;;4993980;28;20396;-69
2021/03/26 11:31:24;;;;;;;2.50;2.07;;;22.50;49.30;;;;;;4993824;28;20403;-68
2021/03/26 11:34:40;;;;;;;1.97;1.73;;;22.60;49.40;;;;;;4995728;28;20858;-68
2021/03/26 11:37:15;;;;;;;2.37;1.93;;;22.60;49.40;;;;;;4991995;28;20456;-69
2021/03/26 11:40:10;;;;;;;2.10;1.70;;;22.60;49.40;;;;;;4993699;28;20487;-69
2021/03/26 11:42:45;;;;;;;2.00;1.63;;;22.60;49.40;;;;;;4992400;28;20448;-68
2021/03/26 11:45:37;;;;;;;2.43;1.93;;;22.60;49.40;;;;;;4993990;28;20416;-69
2021/03/26 11:48:17;;;;;;;2.07;1.83;;;22.60;49.40;;;;;;4996514;28;20421;-68
2021/03/26 11:51:02;;;;;;;2.93;2.73;;;22.60;49.40;;;;;;4997694;28;20530;-69
2021/03/26 11:53:41;;;;;;;2.00;1.73;;;22.60;49.40;;;;;;4997585;28;20582;-67
2021/03/26 11:56:22;;;;;;;2.90;1.93;;;22.60;49.40;;;;;;4996357;28;20787;-68
2021/03/26 11:59:05;;;;;;;1.70;1.40;;;22.60;49.40;;;;;;4997900;28;20882;-68
2021/03/26 12:01:45;;;;;;;2.23;1.63;;;22.60;49.40;;;;;;4997674;28;20483;-67
2021/03/26 12:04:30;;;;;;;2.33;1.80;;;22.60;49.40;;;;;;4997914;28;20800;-68
2021/03/26 12:07:14;;;;;;;2.43;2.23;;;22.60;49.40;;;;;;4996919;28;20424;-68
2021/03/26 12:09:59;;;;;;;2.40;1.90;;;22.70;49.40;;;;;;4997321;28;20392;-69
2021/03/26 12:12:37;;;;;;;2.23;1.80;;;22.70;49.40;;;;;;4996843;28;20434;-70
2021/03/26 12:15:26;;;;;;;2.50;1.93;;;22.70;49.50;;;;;;4996951;28;20403;-69
2021/03/26 12:18:02;;;;;;;2.77;1.90;;;22.70;49.40;;;;;;4996725;28;20538;-70
2021/03/26 12:20:37;;;;;;;1.80;1.60;;;22.70;49.40;;;;;;4997351;28;20486;-70
2021/03/26 12:23:12;;;;;;;2.67;2.13;;;22.60;49.40;;;;;;4996658;28;20427;-69
2021/03/26 12:25:49;;;;;;;3.03;2.57;;;22.70;49.50;;;;;;4996653;28;20395;-69
2021/03/26 12:28:43;;;;;;;2.33;1.83;;;22.70;49.40;;;;;;4995475;28;20887;-68
2021/03/26 12:31:15;;;;;;;4.10;2.20;;;22.70;49.50;;;;;;4986022;28;20428;-69
2021/03/26 12:34:06;;;;;;;1.80;1.50;;;22.60;49.40;;;;;;4996672;28;20490;-69
2021/03/26 12:36:41;;;;;;;2.50;1.67;;;22.70;49.40;;;;;;4994821;28;20970;-72
2021/03/26 12:39:11;;;;;;;1.80;1.50;;;22.60;49.40;;;;;;5011793;28;20435;-71
2021/03/26 12:42:07;;;;;;;2.53;1.70;;;22.60;49.40;;;;;;4996915;28;20396;-69
2021/03/26 12:44:35;;;;;;;2.90;1.73;;;22.60;49.40;;;;;;4990232;28;20428;-69
2021/03/26 12:47:16;;;;;;;2.70;2.00;;;22.60;49.40;;;;;;4996433;28;20400;-69
2021/03/26 12:50:01;;;;;;;2.40;1.70;;;22.60;49.40;;;;;;4996540;28;21010;-69
2021/03/26 12:53:00;;;;;;;2.20;1.60;;;22.60;49.40;;;;;;4996771;28;20431;-70
2021/03/26 12:55:41;;;;;;;2.57;1.53;;;22.60;49.40;;;;;;4993156;28;20443;-70
2021/03/26 12:58:21;;;;;;;2.30;1.63;;;22.50;49.40;;;;;;4993855;28;20808;-69
2021/03/26 13:01:01;;;;;;;2.10;1.90;;;22.50;49.50;;;;;;4995042;28;20444;-69
2021/03/26 13:03:40;;;;;;;2.17;1.60;;;22.50;49.50;;;;;;4996104;28;20459;-70
2021/03/26 13:06:35;;;;;;;2.90;1.70;;;22.50;49.50;;;;;;4996366;28;20396;-69
2021/03/26 13:09:28;;;;;;;2.60;1.80;;;22.50;49.50;;;;;;4993046;28;20427;-69
2021/03/26 13:12:20;;;;;;;1.83;1.67;;;22.50;49.50;;;;;;4994037;28;20819;-69
2021/03/26 13:15:26;;;;;;;1.70;1.53;;;22.50;49.50;;;;;;4995968;28;20392;-69
2021/03/26 13:18:10;;;;;;;2.03;1.70;;;22.50;49.50;;;;;;4996313;28;20444;-69
2021/03/26 13:20:55;;;;;;;1.93;1.77;;;22.40;49.50;;;;;;4994637;28;20923;-68
2021/03/26 13:23:28;;;;;;;2.50;1.93;;;22.40;49.50;;;;;;4995451;28;20967;-69
2021/03/26 13:26:06;;;;;;;2.43;1.57;;;22.40;49.50;;;;;;4995738;28;20882;-69
2021/03/26 13:28:34;;;;;;;2.10;1.47;;;22.40;49.50;;;;;;4995662;28;20397;-70
2021/03/26 13:31:14;;;;;;;2.50;1.60;;;22.40;49.50;;;;;;4995640;28;20412;-69
2021/03/26 13:34:06;;;;;;;2.10;1.33;;;22.40;49.50;;;;;;4994142;28;20970;-69
2021/03/26 13:37:06;;;;;;;4.03;1.87;;;22.40;49.50;;;;;;4995951;28;20736;-69
2021/03/26 13:39:42;;;;;;;2.87;1.90;;;22.40;49.60;;;;;;4995017;28;20436;-69
2021/03/26 13:42:25;;;;;;;2.10;1.77;;;22.40;49.60;;;;;;4995340;28;20420;-69
2021/03/26 13:45:10;;;;;;;1.90;1.60;;;22.40;49.60;;;;;;4995555;28;20742;-69
2021/03/26 13:48:15;;;;;;;5.50;2.27;;;22.40;49.60;;;;;;4995336;28;20955;-69
2021/03/26 13:50:44;;;;;;;2.07;1.50;;;22.40;49.60;;;;;;4995021;28;20829;-69
2021/03/26 13:53:22;;;;;;;2.13;1.63;;;22.30;49.50;;;;;;4994427;28;20490;-68
2021/03/26 13:55:51;;;;;;;1.97;1.73;;;22.40;49.60;;;;;;4995064;28;20511;-70